The unOFFICIAL TMWC
Skip Navigation Links
Results
Course Map
Race Series
Details
18 August 2015
HyperLink
Page 1 of 2 (97 items)
[1]2
Pos
Race No
Fav
Name
Time
Category
Cat Pos
Gender
Gen Pos
Pace
114Robert FREEMAN00:55:54.59U351Male122.1 m/hr
21Fabrizio VON NACHER00:56:10.46U352Male222.0 m/hr
36Kevin VERMAERKE00:56:13.43U191Male322.0 m/hr
494Mikael RODGERS00:56:18.63U192Male421.9 m/hr
515Thomas BUTTERFIELD00:56:18.93U353Male521.9 m/hr
648Matt SMITH00:56:19.63U501Male621.9 m/hr
770Sean BELL00:56:20.08U193Male721.9 m/hr
842Peter AQUINO00:56:20.49U502Male821.9 m/hr
931Rob MCGEE00:56:20.69U503Male921.9 m/hr
109Matthew PARK00:56:20.88U194Male1021.9 m/hr
1186Matthew RHOADS00:56:20.89U354Male1121.9 m/hr
1210Andrew VOLLMER00:56:21.72U195Male1221.9 m/hr
1323Andy SCHMIDT00:56:37.77U504Male1321.8 m/hr
1481Mani MOTAMED00:56:37.97U505Male1421.8 m/hr
1521Chris HILL00:56:38.13U506Male1521.8 m/hr
1680Brian MCCULLOCH00:56:39.38U355Male1621.8 m/hr
1797Charlie MARINKO00:56:46.62U507Male1721.8 m/hr
1845Dan COBLEY00:56:50.35U508Male1821.7 m/hr
1939Shannon MCGEE00:56:50.88U509Male1921.7 m/hr
2074Paul GREVE00:57:06.62Clydesdales1Male2021.6 m/hr
2119Mark WOODWARD00:57:24.73U5010Male2121.5 m/hr
2246Spencer ROUNDY00:57:30.37U5011Male2221.5 m/hr
2328Vince COLF00:57:31.67U5012Male2321.5 m/hr
2444Hartono TANUWIDJAJA00:57:32.00U5013Male2421.5 m/hr
2527Matt FORD00:57:33.51U5014Male2521.5 m/hr
2616Calvin IBA00:57:51.12U356Male2621.4 m/hr
2760Todd BROWN00:57:52.37U1001Male2721.4 m/hr
2882Josh OSKINS00:57:52.61U357Male2821.4 m/hr
2973Rigo CRUZ00:57:59.83Clydesdales2Male2921.3 m/hr
3043Benjamin EVERTON00:58:06.40U5015Male3021.3 m/hr
3199Brad PERRY00:58:21.62U5016Male3121.2 m/hr
3225Robb DORF00:58:50.01U5017Male3221.0 m/hr
3324Nate CAZIER00:58:57.44U5018Male3321.0 m/hr
3430Richard STRANGE00:59:03.41U5019Male3420.9 m/hr
3536Moises MOLINA00:59:08.34U5020Male3520.9 m/hr
3689Ted WILLARD00:59:14.88Clydesdales3Male3620.9 m/hr
3783Nicolas PADILLA00:59:15.32U196Male3720.9 m/hr
3853Carey DOWNS00:59:19.44U1002Male3820.8 m/hr
397Steven NADASKAI00:59:41.38U197Male3920.7 m/hr
4034Steve LIND00:59:42.38U5021Male4020.7 m/hr
4135Jim BISHOP01:00:08.16U5022Male4120.6 m/hr
4263Dan MCDERMOTT01:00:08.78U1003Male4220.5 m/hr
4368Cy ZUIDEMA01:00:09.79U1004Male4320.5 m/hr
4457David FRANK01:00:31.39U1005Male4420.4 m/hr
4526Brad WOBIG01:00:35.74U5023Male4520.4 m/hr
4649Steve TEH01:00:48.69U5024Male4620.3 m/hr
4713Brandon MARTINEZ01:00:50.64U358Male4720.3 m/hr
4829Daniel EITMAN01:01:04.88U5025Male4820.2 m/hr
4961Greg ACKERMAN01:01:05.88U1006Male4920.2 m/hr
503Lori HOECHLIN01:01:07.74Women1Female120.2 m/hr
Page 1 of 2 (97 items)
[1]2
fb